sensor_id;sensor_type;location;lat;lon;timestamp;temperature;humidity
40434;DHT22;26146;51.114;5.654;2022-07-18T00:01:00;18.30;91.80
40434;DHT22;26146;51.114;5.654;2022-07-18T00:05:02;18.20;92.10
40434;DHT22;26146;51.114;5.654;2022-07-18T00:09:03;18.10;92.20
40434;DHT22;26146;51.114;5.654;2022-07-18T00:13:04;18.10;92.40
40434;DHT22;26146;51.114;5.654;2022-07-18T00:17:07;18.10;92.40
40434;DHT22;26146;51.114;5.654;2022-07-18T00:21:08;18.10;92.60
40434;DHT22;26146;51.114;5.654;2022-07-18T00:25:11;18.00;92.90
40434;DHT22;26146;51.114;5.654;2022-07-18T00:29:12;17.90;93.10
40434;DHT22;26146;51.114;5.654;2022-07-18T00:33:13;17.90;93.10
40434;DHT22;26146;51.114;5.654;2022-07-18T00:37:14;17.80;93.20
40434;DHT22;26146;51.114;5.654;2022-07-18T00:41:15;17.70;93.50
40434;DHT22;26146;51.114;5.654;2022-07-18T00:45:16;17.50;93.70
40434;DHT22;26146;51.114;5.654;2022-07-18T00:49:18;17.50;93.70
40434;DHT22;26146;51.114;5.654;2022-07-18T00:53:19;17.50;93.70
40434;DHT22;26146;51.114;5.654;2022-07-18T00:57:20;17.50;93.90
40434;DHT22;26146;51.114;5.654;2022-07-18T01:01:21;17.40;93.90
40434;DHT22;26146;51.114;5.654;2022-07-18T01:05:40;17.30;94.10
40434;DHT22;26146;51.114;5.654;2022-07-18T01:09:41;17.20;94.40
40434;DHT22;26146;51.114;5.654;2022-07-18T01:13:42;17.10;94.50
40434;DHT22;26146;51.114;5.654;2022-07-18T01:17:43;17.20;94.30
40434;DHT22;26146;51.114;5.654;2022-07-18T01:21:44;17.20;94.00
40434;DHT22;26146;51.114;5.654;2022-07-18T01:25:45;17.10;94.00
40434;DHT22;26146;51.114;5.654;2022-07-18T01:29:48;17.10;93.50
40434;DHT22;26146;51.114;5.654;2022-07-18T01:33:49;17.20;93.90
40434;DHT22;26146;51.114;5.654;2022-07-18T01:37:52;17.10;94.00
40434;DHT22;26146;51.114;5.654;2022-07-18T01:42:01;16.90;93.90
40434;DHT22;26146;51.114;5.654;2022-07-18T01:46:03;16.90;93.80
40434;DHT22;26146;51.114;5.654;2022-07-18T01:50:05;16.90;93.90
40434;DHT22;26146;51.114;5.654;2022-07-18T01:54:06;17.00;93.70
40434;DHT22;26146;51.114;5.654;2022-07-18T01:58:07;16.90;93.70
40434;DHT22;26146;51.114;5.654;2022-07-18T02:02:07;16.90;93.70
40434;DHT22;26146;51.114;5.654;2022-07-18T02:06:08;16.90;93.80
40434;DHT22;26146;51.114;5.654;2022-07-18T02:10:18;16.80;94.00
40434;DHT22;26146;51.114;5.654;2022-07-18T02:14:19;16.70;94.20
40434;DHT22;26146;51.114;5.654;2022-07-18T02:18:20;16.80;94.20
40434;DHT22;26146;51.114;5.654;2022-07-18T02:22:21;16.70;94.20
40434;DHT22;26146;51.114;5.654;2022-07-18T02:26:22;16.60;94.20
40434;DHT22;26146;51.114;5.654;2022-07-18T02:30:23;16.60;94.40
40434;DHT22;26146;51.114;5.654;2022-07-18T02:34:24;16.60;94.30
40434;DHT22;26146;51.114;5.654;2022-07-18T02:38:25;16.60;94.50
40434;DHT22;26146;51.114;5.654;2022-07-18T02:42:26;16.50;94.90
40434;DHT22;26146;51.114;5.654;2022-07-18T02:46:27;16.30;95.20
40434;DHT22;26146;51.114;5.654;2022-07-18T02:50:28;16.40;95.10
40434;DHT22;26146;51.114;5.654;2022-07-18T02:54:30;16.40;95.00
40434;DHT22;26146;51.114;5.654;2022-07-18T02:58:31;16.40;95.00
40434;DHT22;26146;51.114;5.654;2022-07-18T03:02:33;16.20;95.30
40434;DHT22;26146;51.114;5.654;2022-07-18T03:06:36;16.20;95.70
40434;DHT22;26146;51.114;5.654;2022-07-18T03:10:37;16.10;95.70
40434;DHT22;26146;51.114;5.654;2022-07-18T03:14:38;16.20;95.40
40434;DHT22;26146;51.114;5.654;2022-07-18T03:18:39;16.10;95.50
40434;DHT22;26146;51.114;5.654;2022-07-18T03:22:40;16.20;95.70
40434;DHT22;26146;51.114;5.654;2022-07-18T03:26:42;16.10;95.80
40434;DHT22;26146;51.114;5.654;2022-07-18T03:30:43;16.10;95.90
40434;DHT22;26146;51.114;5.654;2022-07-18T03:34:44;16.00;95.90
40434;DHT22;26146;51.114;5.654;2022-07-18T03:38:45;16.20;95.40
40434;DHT22;26146;51.114;5.654;2022-07-18T03:42:45;16.20;95.50
40434;DHT22;26146;51.114;5.654;2022-07-18T03:46:46;16.00;95.80
40434;DHT22;26146;51.114;5.654;2022-07-18T03:50:47;16.00;96.00
40434;DHT22;26146;51.114;5.654;2022-07-18T03:54:48;16.10;96.10
40434;DHT22;26146;51.114;5.654;2022-07-18T03:58:49;16.10;96.00
40434;DHT22;26146;51.114;5.654;2022-07-18T04:02:50;16.30;96.10
40434;DHT22;26146;51.114;5.654;2022-07-18T04:06:51;16.60;95.50
40434;DHT22;26146;51.114;5.654;2022-07-18T04:10:52;17.10;94.50
40434;DHT22;26146;51.114;5.654;2022-07-18T04:14:53;17.50;93.70
40434;DHT22;26146;51.114;5.654;2022-07-18T04:18:54;17.40;93.70
40434;DHT22;26146;51.114;5.654;2022-07-18T04:22:59;17.40;93.50
40434;DHT22;26146;51.114;5.654;2022-07-18T04:27:00;17.50;93.40
40434;DHT22;26146;51.114;5.654;2022-07-18T04:31:01;17.60;93.30
40434;DHT22;26146;51.114;5.654;2022-07-18T04:35:03;17.70;93.30
40434;DHT22;26146;51.114;5.654;2022-07-18T04:39:04;17.70;93.20
40434;DHT22;26146;51.114;5.654;2022-07-18T04:43:05;17.70;93.40
40434;DHT22;26146;51.114;5.654;2022-07-18T04:47:07;17.60;93.60
40434;DHT22;26146;51.114;5.654;2022-07-18T04:51:10;17.80;93.50
40434;DHT22;26146;51.114;5.654;2022-07-18T04:55:13;17.80;93.50
40434;DHT22;26146;51.114;5.654;2022-07-18T04:59:14;17.80;93.60
40434;DHT22;26146;51.114;5.654;2022-07-18T05:03:15;17.80;93.70
40434;DHT22;26146;51.114;5.654;2022-07-18T05:07:16;17.80;93.90
40434;DHT22;26146;51.114;5.654;2022-07-18T05:11:17;17.70;93.90
40434;DHT22;26146;51.114;5.654;2022-07-18T05:15:19;17.80;93.80
40434;DHT22;26146;51.114;5.654;2022-07-18T05:19:21;18.00;93.70
40434;DHT22;26146;51.114;5.654;2022-07-18T05:23:22;18.10;93.50
40434;DHT22;26146;51.114;5.654;2022-07-18T05:27:24;18.20;93.40
40434;DHT22;26146;51.114;5.654;2022-07-18T05:31:28;18.40;93.00
40434;DHT22;26146;51.114;5.654;2022-07-18T05:35:29;18.60;93.00
40434;DHT22;26146;51.114;5.654;2022-07-18T05:39:30;19.00;92.70
40434;DHT22;26146;51.114;5.654;2022-07-18T05:43:30;19.20;92.50
40434;DHT22;26146;51.114;5.654;2022-07-18T05:47:31;19.50;92.10
40434;DHT22;26146;51.114;5.654;2022-07-18T05:51:32;19.80;92.10
40434;DHT22;26146;51.114;5.654;2022-07-18T05:55:33;20.00;91.90
40434;DHT22;26146;51.114;5.654;2022-07-18T05:59:34;20.30;92.00
40434;DHT22;26146;51.114;5.654;2022-07-18T06:03:35;20.50;91.80
40434;DHT22;26146;51.114;5.654;2022-07-18T06:07:36;20.80;91.30
40434;DHT22;26146;51.114;5.654;2022-07-18T06:28:03;21.20;90.40
40434;DHT22;26146;51.114;5.654;2022-07-18T06:32:06;21.90;90.10
40434;DHT22;26146;51.114;5.654;2022-07-18T06:36:07;22.10;90.10
40434;DHT22;26146;51.114;5.654;2022-07-18T06:40:09;22.20;90.20
40434;DHT22;26146;51.114;5.654;2022-07-18T06:44:13;22.40;90.20
40434;DHT22;26146;51.114;5.654;2022-07-18T06:48:15;22.80;88.50
40434;DHT22;26146;51.114;5.654;2022-07-18T06:52:16;23.00;87.50
40434;DHT22;26146;51.114;5.654;2022-07-18T06:56:17;23.20;85.90
40434;DHT22;26146;51.114;5.654;2022-07-18T07:00:18;23.40;86.10
40434;DHT22;26146;51.114;5.654;2022-07-18T07:04:19;23.60;85.50
40434;DHT22;26146;51.114;5.654;2022-07-18T07:08:23;23.90;83.70
40434;DHT22;26146;51.114;5.654;2022-07-18T07:12:23;24.00;82.50
40434;DHT22;26146;51.114;5.654;2022-07-18T07:16:25;24.10;83.10
40434;DHT22;26146;51.114;5.654;2022-07-18T07:20:28;24.30;81.70
40434;DHT22;26146;51.114;5.654;2022-07-18T07:24:29;24.80;80.50
40434;DHT22;26146;51.114;5.654;2022-07-18T07:28:30;25.00;80.20
40434;DHT22;26146;51.114;5.654;2022-07-18T07:32:38;25.10;79.30
40434;DHT22;26146;51.114;5.654;2022-07-18T07:36:39;25.20;76.50
40434;DHT22;26146;51.114;5.654;2022-07-18T07:40:40;25.40;75.80
40434;DHT22;26146;51.114;5.654;2022-07-18T07:44:41;25.60;72.80
40434;DHT22;26146;51.114;5.654;2022-07-18T07:48:42;25.80;73.50
40434;DHT22;26146;51.114;5.654;2022-07-18T07:52:44;26.00;73.30
40434;DHT22;26146;51.114;5.654;2022-07-18T07:56:47;26.20;72.70
40434;DHT22;26146;51.114;5.654;2022-07-18T08:00:48;26.30;72.30
40434;DHT22;26146;51.114;5.654;2022-07-18T08:04:49;26.50;72.60
40434;DHT22;26146;51.114;5.654;2022-07-18T08:08:50;26.70;72.20
40434;DHT22;26146;51.114;5.654;2022-07-18T08:12:51;26.90;71.20
40434;DHT22;26146;51.114;5.654;2022-07-18T08:16:55;27.10;70.20
40434;DHT22;26146;51.114;5.654;2022-07-18T08:21:00;27.00;69.70
40434;DHT22;26146;51.114;5.654;2022-07-18T08:25:07;27.30;69.80
40434;DHT22;26146;51.114;5.654;2022-07-18T08:29:08;27.40;69.60
40434;DHT22;26146;51.114;5.654;2022-07-18T08:33:14;27.60;69.20
40434;DHT22;26146;51.114;5.654;2022-07-18T08:37:15;27.80;68.30
40434;DHT22;26146;51.114;5.654;2022-07-18T08:41:19;28.10;68.90
40434;DHT22;26146;51.114;5.654;2022-07-18T08:45:23;28.40;67.20
40434;DHT22;26146;51.114;5.654;2022-07-18T08:49:29;28.50;65.50
40434;DHT22;26146;51.114;5.654;2022-07-18T08:53:35;28.70;65.20
40434;DHT22;26146;51.114;5.654;2022-07-18T08:57:40;28.90;64.70
40434;DHT22;26146;51.114;5.654;2022-07-18T09:01:41;29.10;63.70
40434;DHT22;26146;51.114;5.654;2022-07-18T09:05:42;29.30;64.90
40434;DHT22;26146;51.114;5.654;2022-07-18T09:09:53;29.50;63.00
40434;DHT22;26146;51.114;5.654;2022-07-18T09:13:55;29.60;62.50
40434;DHT22;26146;51.114;5.654;2022-07-18T09:17:56;29.70;63.90
40434;DHT22;26146;51.114;5.654;2022-07-18T09:22:20;29.60;62.10
40434;DHT22;26146;51.114;5.654;2022-07-18T09:26:40;29.80;62.60
40434;DHT22;26146;51.114;5.654;2022-07-18T09:30:42;30.10;62.60
40434;DHT22;26146;51.114;5.654;2022-07-18T09:34:43;30.30;62.90
40434;DHT22;26146;51.114;5.654;2022-07-18T09:38:44;30.50;62.60
40434;DHT22;26146;51.114;5.654;2022-07-18T09:42:49;30.70;62.30
40434;DHT22;26146;51.114;5.654;2022-07-18T09:47:04;30.80;62.20
40434;DHT22;26146;51.114;5.654;2022-07-18T09:51:06;30.70;60.60
40434;DHT22;26146;51.114;5.654;2022-07-18T09:55:07;30.80;60.40
40434;DHT22;26146;51.114;5.654;2022-07-18T09:59:09;30.90;61.40
40434;DHT22;26146;51.114;5.654;2022-07-18T10:03:10;30.90;61.30
40434;DHT22;26146;51.114;5.654;2022-07-18T10:07:11;30.90;61.90
40434;DHT22;26146;51.114;5.654;2022-07-18T10:11:14;31.00;61.40
40434;DHT22;26146;51.114;5.654;2022-07-18T10:15:15;30.90;59.60
40434;DHT22;26146;51.114;5.654;2022-07-18T10:19:16;30.90;61.10
40434;DHT22;26146;51.114;5.654;2022-07-18T10:23:29;31.10;60.00
40434;DHT22;26146;51.114;5.654;2022-07-18T10:32:03;31.10;60.20
40434;DHT22;26146;51.114;5.654;2022-07-18T10:36:06;31.20;60.50
40434;DHT22;26146;51.114;5.654;2022-07-18T10:40:27;31.50;59.20
40434;DHT22;26146;51.114;5.654;2022-07-18T11:00:38;32.00;58.70
40434;DHT22;26146;51.114;5.654;2022-07-18T11:04:43;32.00;59.10
40434;DHT22;26146;51.114;5.654;2022-07-18T11:08:48;32.20;59.00
40434;DHT22;26146;51.114;5.654;2022-07-18T11:21:56;32.20;58.20
40434;DHT22;26146;51.114;5.654;2022-07-18T11:26:00;32.50;56.70
40434;DHT22;26146;51.114;5.654;2022-07-18T11:30:03;32.30;56.20
40434;DHT22;26146;51.114;5.654;2022-07-18T11:34:05;32.60;56.80
40434;DHT22;26146;51.114;5.654;2022-07-18T11:38:07;32.80;56.70
40434;DHT22;26146;51.114;5.654;2022-07-18T11:42:12;33.00;55.90
40434;DHT22;26146;51.114;5.654;2022-07-18T11:46:17;32.80;55.80
40434;DHT22;26146;51.114;5.654;2022-07-18T11:50:34;32.80;55.80
40434;DHT22;26146;51.114;5.654;2022-07-18T11:54:38;32.50;56.30
40434;DHT22;26146;51.114;5.654;2022-07-18T11:58:40;32.60;56.60
40434;DHT22;26146;51.114;5.654;2022-07-18T12:03:02;32.60;55.30
40434;DHT22;26146;51.114;5.654;2022-07-18T12:07:23;32.80;54.80
40434;DHT22;26146;51.114;5.654;2022-07-18T12:11:28;32.70;55.60
40434;DHT22;26146;51.114;5.654;2022-07-18T12:15:39;32.60;55.70
40434;DHT22;26146;51.114;5.654;2022-07-18T12:19:41;32.80;55.70
40434;DHT22;26146;51.114;5.654;2022-07-18T12:23:49;33.10;55.20
40434;DHT22;26146;51.114;5.654;2022-07-18T12:27:52;33.20;54.70
40434;DHT22;26146;51.114;5.654;2022-07-18T12:31:53;32.90;54.50
40434;DHT22;26146;51.114;5.654;2022-07-18T12:35:56;32.80;55.30
40434;DHT22;26146;51.114;5.654;2022-07-18T12:40:00;32.80;54.80
40434;DHT22;26146;51.114;5.654;2022-07-18T12:44:01;33.00;54.90
40434;DHT22;26146;51.114;5.654;2022-07-18T12:48:03;33.20;54.60
40434;DHT22;26146;51.114;5.654;2022-07-18T12:52:14;33.30;53.50
40434;DHT22;26146;51.114;5.654;2022-07-18T12:56:15;33.50;53.50
40434;DHT22;26146;51.114;5.654;2022-07-18T13:00:19;33.50;54.50
40434;DHT22;26146;51.114;5.654;2022-07-18T13:04:20;33.60;54.00
40434;DHT22;26146;51.114;5.654;2022-07-18T13:08:21;33.50;52.80
40434;DHT22;26146;51.114;5.654;2022-07-18T13:12:26;33.70;53.50
40434;DHT22;26146;51.114;5.654;2022-07-18T13:16:27;33.60;53.70
40434;DHT22;26146;51.114;5.654;2022-07-18T13:20:31;33.60;52.60
40434;DHT22;26146;51.114;5.654;2022-07-18T13:24:36;33.60;52.90
40434;DHT22;26146;51.114;5.654;2022-07-18T13:28:40;33.40;53.60
40434;DHT22;26146;51.114;5.654;2022-07-18T13:32:43;33.60;54.00
40434;DHT22;26146;51.114;5.654;2022-07-18T13:36:48;33.70;52.70
40434;DHT22;26146;51.114;5.654;2022-07-18T13:40:52;34.00;52.70
40434;DHT22;26146;51.114;5.654;2022-07-18T13:44:53;34.00;53.20
40434;DHT22;26146;51.114;5.654;2022-07-18T13:48:54;34.10;53.10
40434;DHT22;26146;51.114;5.654;2022-07-18T13:52:55;34.10;53.20
40434;DHT22;26146;51.114;5.654;2022-07-18T13:56:58;33.90;52.50
40434;DHT22;26146;51.114;5.654;2022-07-18T14:00:59;33.80;51.80
40434;DHT22;26146;51.114;5.654;2022-07-18T14:05:02;33.90;51.30
40434;DHT22;26146;51.114;5.654;2022-07-18T14:09:10;34.10;52.70
40434;DHT22;26146;51.114;5.654;2022-07-18T14:13:11;34.30;51.10
40434;DHT22;26146;51.114;5.654;2022-07-18T14:17:14;34.50;51.50
40434;DHT22;26146;51.114;5.654;2022-07-18T14:21:17;34.40;50.90
40434;DHT22;26146;51.114;5.654;2022-07-18T14:25:23;34.40;49.60
40434;DHT22;26146;51.114;5.654;2022-07-18T14:29:26;34.30;50.50
40434;DHT22;26146;51.114;5.654;2022-07-18T14:33:29;34.40;50.70
40434;DHT22;26146;51.114;5.654;2022-07-18T14:37:38;34.40;49.80
40434;DHT22;26146;51.114;5.654;2022-07-18T14:41:41;34.30;49.40
40434;DHT22;26146;51.114;5.654;2022-07-18T14:45:45;34.20;48.50
40434;DHT22;26146;51.114;5.654;2022-07-18T14:49:49;34.40;49.00
40434;DHT22;26146;51.114;5.654;2022-07-18T14:53:50;34.20;49.80
40434;DHT22;26146;51.114;5.654;2022-07-18T14:57:51;34.20;49.10
40434;DHT22;26146;51.114;5.654;2022-07-18T15:01:57;34.20;48.90
40434;DHT22;26146;51.114;5.654;2022-07-18T15:06:06;34.10;49.70
40434;DHT22;26146;51.114;5.654;2022-07-18T15:10:10;34.20;48.40
40434;DHT22;26146;51.114;5.654;2022-07-18T15:14:11;34.40;48.70
40434;DHT22;26146;51.114;5.654;2022-07-18T15:18:12;34.40;48.00
40434;DHT22;26146;51.114;5.654;2022-07-18T15:22:13;34.30;49.20
40434;DHT22;26146;51.114;5.654;2022-07-18T15:26:14;34.40;49.10
40434;DHT22;26146;51.114;5.654;2022-07-18T15:30:18;34.40;49.20
40434;DHT22;26146;51.114;5.654;2022-07-18T15:34:19;34.60;49.20
40434;DHT22;26146;51.114;5.654;2022-07-18T15:38:20;34.60;50.00
40434;DHT22;26146;51.114;5.654;2022-07-18T15:42:23;34.90;49.00
40434;DHT22;26146;51.114;5.654;2022-07-18T15:46:24;34.50;49.10
40434;DHT22;26146;51.114;5.654;2022-07-18T15:50:32;34.50;49.80
40434;DHT22;26146;51.114;5.654;2022-07-18T15:54:36;34.40;48.20
40434;DHT22;26146;51.114;5.654;2022-07-18T15:58:37;34.60;50.20
40434;DHT22;26146;51.114;5.654;2022-07-18T16:02:41;34.90;47.90
40434;DHT22;26146;51.114;5.654;2022-07-18T16:06:41;35.00;47.70
40434;DHT22;26146;51.114;5.654;2022-07-18T16:10:45;34.60;47.40
40434;DHT22;26146;51.114;5.654;2022-07-18T16:14:48;34.80;47.70
40434;DHT22;26146;51.114;5.654;2022-07-18T16:18:51;34.70;48.80
40434;DHT22;26146;51.114;5.654;2022-07-18T16:22:54;34.70;48.20
40434;DHT22;26146;51.114;5.654;2022-07-18T16:26:55;35.00;50.00
40434;DHT22;26146;51.114;5.654;2022-07-18T16:30:57;34.90;49.20
40434;DHT22;26146;51.114;5.654;2022-07-18T16:34:57;35.00;48.80
40434;DHT22;26146;51.114;5.654;2022-07-18T16:38:58;34.80;48.70
40434;DHT22;26146;51.114;5.654;2022-07-18T16:43:02;34.50;48.10
40434;DHT22;26146;51.114;5.654;2022-07-18T16:47:06;34.60;48.90
40434;DHT22;26146;51.114;5.654;2022-07-18T16:51:08;34.70;49.40
40434;DHT22;26146;51.114;5.654;2022-07-18T16:55:12;34.60;49.40
40434;DHT22;26146;51.114;5.654;2022-07-18T16:59:16;34.50;49.40
40434;DHT22;26146;51.114;5.654;2022-07-18T17:03:22;34.40;49.20
40434;DHT22;26146;51.114;5.654;2022-07-18T17:07:33;34.20;50.60
40434;DHT22;26146;51.114;5.654;2022-07-18T17:11:37;34.10;50.40
40434;DHT22;26146;51.114;5.654;2022-07-18T17:15:39;33.90;51.20
40434;DHT22;26146;51.114;5.654;2022-07-18T17:19:40;33.90;51.40
40434;DHT22;26146;51.114;5.654;2022-07-18T17:23:41;33.90;51.00
40434;DHT22;26146;51.114;5.654;2022-07-18T17:27:42;33.90;51.30
40434;DHT22;26146;51.114;5.654;2022-07-18T17:31:44;33.80;50.80
40434;DHT22;26146;51.114;5.654;2022-07-18T17:35:47;33.80;51.70
40434;DHT22;26146;51.114;5.654;2022-07-18T17:39:49;33.70;51.10
40434;DHT22;26146;51.114;5.654;2022-07-18T17:43:53;33.70;50.40
40434;DHT22;26146;51.114;5.654;2022-07-18T17:47:54;33.60;50.60
40434;DHT22;26146;51.114;5.654;2022-07-18T17:51:58;33.50;50.80
40434;DHT22;26146;51.114;5.654;2022-07-18T17:56:00;33.50;50.80
40434;DHT22;26146;51.114;5.654;2022-07-18T18:00:08;33.40;50.70
40434;DHT22;26146;51.114;5.654;2022-07-18T18:04:10;33.40;51.30
40434;DHT22;26146;51.114;5.654;2022-07-18T18:08:13;33.30;51.80
40434;DHT22;26146;51.114;5.654;2022-07-18T18:12:18;33.10;51.90
40434;DHT22;26146;51.114;5.654;2022-07-18T18:16:20;33.10;53.70
40434;DHT22;26146;51.114;5.654;2022-07-18T18:20:21;33.10;53.90
40434;DHT22;26146;51.114;5.654;2022-07-18T18:24:22;32.90;55.10
40434;DHT22;26146;51.114;5.654;2022-07-18T18:28:24;32.80;56.40
40434;DHT22;26146;51.114;5.654;2022-07-18T18:32:25;32.60;57.50
40434;DHT22;26146;51.114;5.654;2022-07-18T18:36:26;32.50;61.10
40434;DHT22;26146;51.114;5.654;2022-07-18T18:40:46;32.30;61.80
40434;DHT22;26146;51.114;5.654;2022-07-18T18:44:50;32.10;61.50
40434;DHT22;26146;51.114;5.654;2022-07-18T18:48:53;31.90;62.20
40434;DHT22;26146;51.114;5.654;2022-07-18T18:52:57;31.80;62.80
40434;DHT22;26146;51.114;5.654;2022-07-18T18:56:57;31.60;63.40
40434;DHT22;26146;51.114;5.654;2022-07-18T19:01:01;31.40;64.40
40434;DHT22;26146;51.114;5.654;2022-07-18T19:05:02;31.30;64.40
40434;DHT22;26146;51.114;5.654;2022-07-18T19:09:08;31.00;63.10
40434;DHT22;26146;51.114;5.654;2022-07-18T19:13:12;30.80;63.30
40434;DHT22;26146;51.114;5.654;2022-07-18T19:17:13;30.60;63.90
40434;DHT22;26146;51.114;5.654;2022-07-18T19:21:17;30.40;64.90
40434;DHT22;26146;51.114;5.654;2022-07-18T19:25:21;30.20;65.70
40434;DHT22;26146;51.114;5.654;2022-07-18T19:29:26;30.00;66.40
40434;DHT22;26146;51.114;5.654;2022-07-18T19:33:28;29.70;66.50
40434;DHT22;26146;51.114;5.654;2022-07-18T19:37:29;29.50;66.10
40434;DHT22;26146;51.114;5.654;2022-07-18T19:41:30;29.30;65.90
40434;DHT22;26146;51.114;5.654;2022-07-18T19:45:32;29.20;66.20
40434;DHT22;26146;51.114;5.654;2022-07-18T19:49:33;29.00;66.60
40434;DHT22;26146;51.114;5.654;2022-07-18T19:53:34;28.60;66.90
40434;DHT22;26146;51.114;5.654;2022-07-18T19:57:34;28.40;67.90
40434;DHT22;26146;51.114;5.654;2022-07-18T20:01:36;28.10;69.30
40434;DHT22;26146;51.114;5.654;2022-07-18T20:05:37;28.00;68.90
40434;DHT22;26146;51.114;5.654;2022-07-18T20:09:38;27.60;68.70
40434;DHT22;26146;51.114;5.654;2022-07-18T20:13:39;27.50;68.80
40434;DHT22;26146;51.114;5.654;2022-07-18T20:17:40;27.30;69.10
40434;DHT22;26146;51.114;5.654;2022-07-18T20:21:41;27.20;70.50
40434;DHT22;26146;51.114;5.654;2022-07-18T20:25:42;27.10;72.90
40434;DHT22;26146;51.114;5.654;2022-07-18T20:29:43;26.90;73.90
40434;DHT22;26146;51.114;5.654;2022-07-18T20:33:44;26.60;74.30
40434;DHT22;26146;51.114;5.654;2022-07-18T20:37:49;26.50;74.90
40434;DHT22;26146;51.114;5.654;2022-07-18T20:41:52;26.30;74.50
40434;DHT22;26146;51.114;5.654;2022-07-18T20:45:53;26.20;74.80
40434;DHT22;26146;51.114;5.654;2022-07-18T20:49:54;26.10;74.70
40434;DHT22;26146;51.114;5.654;2022-07-18T20:53:55;26.00;75.00
40434;DHT22;26146;51.114;5.654;2022-07-18T20:57:56;25.90;75.10
40434;DHT22;26146;51.114;5.654;2022-07-18T21:01:57;25.80;75.80
40434;DHT22;26146;51.114;5.654;2022-07-18T21:05:58;25.60;76.30
40434;DHT22;26146;51.114;5.654;2022-07-18T21:09:59;25.40;76.30
40434;DHT22;26146;51.114;5.654;2022-07-18T21:14:00;25.30;76.30
40434;DHT22;26146;51.114;5.654;2022-07-18T21:18:21;25.30;76.90
40434;DHT22;26146;51.114;5.654;2022-07-18T21:22:22;25.20;77.10
40434;DHT22;26146;51.114;5.654;2022-07-18T21:26:24;25.10;77.00
40434;DHT22;26146;51.114;5.654;2022-07-18T21:30:24;24.90;77.90
40434;DHT22;26146;51.114;5.654;2022-07-18T21:34:28;24.80;79.10
40434;DHT22;26146;51.114;5.654;2022-07-18T21:38:29;24.70;79.20
40434;DHT22;26146;51.114;5.654;2022-07-18T21:42:30;24.70;80.00
40434;DHT22;26146;51.114;5.654;2022-07-18T21:46:31;24.60;80.50
40434;DHT22;26146;51.114;5.654;2022-07-18T21:50:32;24.50;80.70
40434;DHT22;26146;51.114;5.654;2022-07-18T21:54:34;24.40;80.70
40434;DHT22;26146;51.114;5.654;2022-07-18T21:58:35;24.30;80.50
40434;DHT22;26146;51.114;5.654;2022-07-18T22:02:36;24.20;79.80
40434;DHT22;26146;51.114;5.654;2022-07-18T22:06:38;24.20;80.20
40434;DHT22;26146;51.114;5.654;2022-07-18T22:10:39;24.10;80.40
40434;DHT22;26146;51.114;5.654;2022-07-18T22:14:40;24.00;80.60
40434;DHT22;26146;51.114;5.654;2022-07-18T22:18:41;24.00;80.80
40434;DHT22;26146;51.114;5.654;2022-07-18T22:22:43;23.90;80.60
40434;DHT22;26146;51.114;5.654;2022-07-18T22:26:44;23.80;80.90
40434;DHT22;26146;51.114;5.654;2022-07-18T22:30:45;23.70;81.10
40434;DHT22;26146;51.114;5.654;2022-07-18T22:34:46;23.70;81.80
40434;DHT22;26146;51.114;5.654;2022-07-18T22:38:47;23.60;82.50
40434;DHT22;26146;51.114;5.654;2022-07-18T22:42:48;23.60;82.90
40434;DHT22;26146;51.114;5.654;2022-07-18T22:46:49;23.50;82.70
40434;DHT22;26146;51.114;5.654;2022-07-18T22:50:50;23.40;83.60
40434;DHT22;26146;51.114;5.654;2022-07-18T22:54:51;23.30;84.00
40434;DHT22;26146;51.114;5.654;2022-07-18T22:58:52;23.10;84.30
40434;DHT22;26146;51.114;5.654;2022-07-18T23:02:53;23.10;84.70
40434;DHT22;26146;51.114;5.654;2022-07-18T23:06:56;23.00;84.90
40434;DHT22;26146;51.114;5.654;2022-07-18T23:10:58;22.90;85.30
40434;DHT22;26146;51.114;5.654;2022-07-18T23:14:59;22.80;85.20
40434;DHT22;26146;51.114;5.654;2022-07-18T23:19:00;22.80;85.20
40434;DHT22;26146;51.114;5.654;2022-07-18T23:23:01;22.70;85.50
40434;DHT22;26146;51.114;5.654;2022-07-18T23:27:02;22.70;85.60
40434;DHT22;26146;51.114;5.654;2022-07-18T23:31:03;22.70;86.00
40434;DHT22;26146;51.114;5.654;2022-07-18T23:35:05;22.60;85.90
40434;DHT22;26146;51.114;5.654;2022-07-18T23:39:06;22.60;86.70
40434;DHT22;26146;51.114;5.654;2022-07-18T23:43:07;22.50;86.40
40434;DHT22;26146;51.114;5.654;2022-07-18T23:47:08;22.40;86.70
40434;DHT22;26146;51.114;5.654;2022-07-18T23:51:11;22.40;86.90
40434;DHT22;26146;51.114;5.654;2022-07-18T23:55:13;22.30;86.90
40434;DHT22;26146;51.114;5.654;2022-07-18T23:59:14;22.20;87.20
